sensor_id;sensor_type;location;lat;lon;timestamp;pressure;altitude;pressure_sealevel;temperature
71897;BMP280;59767;51.344;12.362;2023-04-08T00:01:26;160343.31;;;6.67
71897;BMP280;59767;51.344;12.362;2023-04-08T00:04:30;160353.75;;;6.71
71897;BMP280;59767;51.344;12.362;2023-04-08T00:07:34;160340.66;;;6.66
71897;BMP280;59767;51.344;12.362;2023-04-08T00:10:38;160335.47;;;6.64
71897;BMP280;59767;51.344;12.362;2023-04-08T00:13:43;160335.47;;;6.64
71897;BMP280;59767;51.344;12.362;2023-04-08T00:16:46;160340.66;;;6.66
71897;BMP280;59767;51.344;12.362;2023-04-08T00:19:51;160343.31;;;6.67
71897;BMP280;59767;51.344;12.362;2023-04-08T00:22:55;160328.97;;;6.62
71897;BMP280;59767;51.344;12.362;2023-04-08T00:25:59;160322.44;;;6.59
71897;BMP280;59767;51.344;12.362;2023-04-08T00:29:03;160335.47;;;6.64
71897;BMP280;59767;51.344;12.362;2023-04-08T00:32:07;160343.31;;;6.67
71897;BMP280;59767;51.344;12.362;2023-04-08T00:35:11;160321.13;;;6.59
71897;BMP280;59767;51.344;12.362;2023-04-08T00:38:16;160328.97;;;6.62
71897;BMP280;59767;51.344;12.362;2023-04-08T00:41:20;160331.56;;;6.63
71897;BMP280;59767;51.344;12.362;2023-04-08T00:44:24;160334.16;;;6.64
71897;BMP280;59767;51.344;12.362;2023-04-08T00:47:28;160343.31;;;6.67
71897;BMP280;59767;51.344;12.362;2023-04-08T00:50:32;160326.38;;;6.61
71897;BMP280;59767;51.344;12.362;2023-04-08T00:53:36;160321.13;;;6.59
71897;BMP280;59767;51.344;12.362;2023-04-08T00:56:39;160319.78;;;6.58
71897;BMP280;59767;51.344;12.362;2023-04-08T00:59:45;160322.44;;;6.59
71897;BMP280;59767;51.344;12.362;2023-04-08T01:06:08;160330.22;;;6.62
71897;BMP280;59767;51.344;12.362;2023-04-08T01:09:13;160321.13;;;6.59
71897;BMP280;59767;51.344;12.362;2023-04-08T01:12:23;160317.19;;;6.57
71897;BMP280;59767;51.344;12.362;2023-04-08T01:15:30;160319.78;;;6.58
71897;BMP280;59767;51.344;12.362;2023-04-08T01:18:34;160304.13;;;6.52
71897;BMP280;59767;51.344;12.362;2023-04-08T01:21:39;160310.69;;;6.55
71897;BMP280;59767;51.344;12.362;2023-04-08T01:24:43;160310.69;;;6.55
71897;BMP280;59767;51.344;12.362;2023-04-08T01:27:48;160311.97;;;6.55
71897;BMP280;59767;51.344;12.362;2023-04-08T01:30:52;160309.38;;;6.54
71897;BMP280;59767;51.344;12.362;2023-04-08T01:33:58;160306.72;;;6.53
71897;BMP280;59767;51.344;12.362;2023-04-08T01:37:03;160313.28;;;6.56
71897;BMP280;59767;51.344;12.362;2023-04-08T01:40:08;160306.72;;;6.53
71897;BMP280;59767;51.344;12.362;2023-04-08T01:43:13;160315.88;;;6.57
71897;BMP280;59767;51.344;12.362;2023-04-08T01:46:19;160317.19;;;6.57
71897;BMP280;59767;51.344;12.362;2023-04-08T01:49:23;160305.44;;;6.53
71897;BMP280;59767;51.344;12.362;2023-04-08T01:52:27;160304.13;;;6.52
71897;BMP280;59767;51.344;12.362;2023-04-08T01:55:32;160305.44;;;6.53
71897;BMP280;59767;51.344;12.362;2023-04-08T01:58:36;160304.13;;;6.52
71897;BMP280;59767;51.344;12.362;2023-04-08T02:01:43;160304.13;;;6.52
71897;BMP280;59767;51.344;12.362;2023-04-08T02:04:47;160287.16;;;6.46
71897;BMP280;59767;51.344;12.362;2023-04-08T02:07:51;160276.72;;;6.42
71897;BMP280;59767;51.344;12.362;2023-04-08T02:10:55;160270.16;;;6.39
71897;BMP280;59767;51.344;12.362;2023-04-08T02:13:59;160283.25;;;6.44
71897;BMP280;59767;51.344;12.362;2023-04-08T02:23:16;160285.88;;;6.45
71897;BMP280;59767;51.344;12.362;2023-04-08T02:26:22;160287.16;;;6.46
71897;BMP280;59767;51.344;12.362;2023-04-08T02:29:27;160287.16;;;6.46
71897;BMP280;59767;51.344;12.362;2023-04-08T02:32:32;160291.06;;;6.47
71897;BMP280;59767;51.344;12.362;2023-04-08T02:35:37;160291.06;;;6.47
71897;BMP280;59767;51.344;12.362;2023-04-08T02:38:46;160298.88;;;6.50
71897;BMP280;59767;51.344;12.362;2023-04-08T02:41:52;160292.41;;;6.48
71897;BMP280;59767;51.344;12.362;2023-04-08T02:44:56;160288.47;;;6.46
71897;BMP280;59767;51.344;12.362;2023-04-08T02:48:00;160295.00;;;6.49
71897;BMP280;59767;51.344;12.362;2023-04-08T02:51:05;160288.47;;;6.46
71897;BMP280;59767;51.344;12.362;2023-04-08T02:54:09;160288.47;;;6.46
71897;BMP280;59767;51.344;12.362;2023-04-08T02:57:12;160274.06;;;6.41
71897;BMP280;59767;51.344;12.362;2023-04-08T03:00:16;160280.66;;;6.43
71897;BMP280;59767;51.344;12.362;2023-04-08T03:03:20;160257.13;;;6.34
71897;BMP280;59767;51.344;12.362;2023-04-08T03:06:32;160254.53;;;6.33
71897;BMP280;59767;51.344;12.362;2023-04-08T03:09:36;160268.88;;;6.39
71897;BMP280;59767;51.344;12.362;2023-04-08T03:12:40;160271.47;;;6.40
71897;BMP280;59767;51.344;12.362;2023-04-08T03:15:44;160263.69;;;6.37
71897;BMP280;59767;51.344;12.362;2023-04-08T03:18:51;160275.41;;;6.41
71897;BMP280;59767;51.344;12.362;2023-04-08T03:21:55;160284.56;;;6.45
71897;BMP280;59767;51.344;12.362;2023-04-08T03:24:59;160271.47;;;6.40
71897;BMP280;59767;51.344;12.362;2023-04-08T03:28:03;160272.81;;;6.40
71897;BMP280;59767;51.344;12.362;2023-04-08T03:31:06;160267.56;;;6.38
71897;BMP280;59767;51.344;12.362;2023-04-08T03:34:10;160281.91;;;6.44
71897;BMP280;59767;51.344;12.362;2023-04-08T03:37:14;160270.16;;;6.39
71897;BMP280;59767;51.344;12.362;2023-04-08T03:40:18;160259.78;;;6.35
71897;BMP280;59767;51.344;12.362;2023-04-08T03:43:22;160255.84;;;6.34
71897;BMP280;59767;51.344;12.362;2023-04-08T03:46:28;160251.94;;;6.32
71897;BMP280;59767;51.344;12.362;2023-04-08T03:49:32;160261.09;;;6.36
71897;BMP280;59767;51.344;12.362;2023-04-08T03:52:36;160258.44;;;6.35
71897;BMP280;59767;51.344;12.362;2023-04-08T03:55:40;160255.84;;;6.34
71897;BMP280;59767;51.344;12.362;2023-04-08T03:58:44;160241.44;;;6.28
71897;BMP280;59767;51.344;12.362;2023-04-08T04:01:48;160267.56;;;6.38
71897;BMP280;59767;51.344;12.362;2023-04-08T04:04:54;160249.28;;;6.31
71897;BMP280;59767;51.344;12.362;2023-04-08T04:07:57;160233.59;;;6.25
71897;BMP280;59767;51.344;12.362;2023-04-08T04:11:01;160223.22;;;6.21
71897;BMP280;59767;51.344;12.362;2023-04-08T04:14:05;160234.94;;;6.26
71897;BMP280;59767;51.344;12.362;2023-04-08T04:17:09;160240.19;;;6.28
71897;BMP280;59767;51.344;12.362;2023-04-08T04:20:13;160224.50;;;6.22
71897;BMP280;59767;51.344;12.362;2023-04-08T04:23:17;160198.38;;;6.12
71897;BMP280;59767;51.344;12.362;2023-04-08T04:26:21;160215.38;;;6.18
71897;BMP280;59767;51.344;12.362;2023-04-08T04:29:25;160210.16;;;6.16
71897;BMP280;59767;51.344;12.362;2023-04-08T04:32:29;160225.81;;;6.22
71897;BMP280;59767;51.344;12.362;2023-04-08T04:35:33;160236.25;;;6.26
71897;BMP280;59767;51.344;12.362;2023-04-08T04:38:37;160233.59;;;6.25
71897;BMP280;59767;51.344;12.362;2023-04-08T04:41:41;160241.44;;;6.28
71897;BMP280;59767;51.344;12.362;2023-04-08T04:44:47;160244.09;;;6.29
71897;BMP280;59767;51.344;12.362;2023-04-08T04:47:50;160248.00;;;6.31
71897;BMP280;59767;51.344;12.362;2023-04-08T04:50:58;160250.59;;;6.32
71897;BMP280;59767;51.344;12.362;2023-04-08T04:54:02;160245.38;;;6.30
71897;BMP280;59767;51.344;12.362;2023-04-08T04:57:06;160246.69;;;6.30
71897;BMP280;59767;51.344;12.362;2023-04-08T05:00:10;160249.28;;;6.31
71897;BMP280;59767;51.344;12.362;2023-04-08T05:03:14;160241.44;;;6.28
71897;BMP280;59767;51.344;12.362;2023-04-08T05:06:19;160257.13;;;6.34
71897;BMP280;59767;51.344;12.362;2023-04-08T05:09:25;160257.13;;;6.34
71897;BMP280;59767;51.344;12.362;2023-04-08T05:12:29;160257.13;;;6.34
71897;BMP280;59767;51.344;12.362;2023-04-08T05:15:33;160261.09;;;6.36
71897;BMP280;59767;51.344;12.362;2023-04-08T05:18:38;160263.69;;;6.37
71897;BMP280;59767;51.344;12.362;2023-04-08T05:21:42;160262.38;;;6.36
71897;BMP280;59767;51.344;12.362;2023-04-08T05:24:46;160253.22;;;6.33
71897;BMP280;59767;51.344;12.362;2023-04-08T05:27:50;160266.25;;;6.38
71897;BMP280;59767;51.344;12.362;2023-04-08T05:30:54;160267.56;;;6.38
71897;BMP280;59767;51.344;12.362;2023-04-08T05:33:59;160280.66;;;6.43
71897;BMP280;59767;51.344;12.362;2023-04-08T05:37:03;160283.25;;;6.44
71897;BMP280;59767;51.344;12.362;2023-04-08T05:40:07;160263.69;;;6.37
71897;BMP280;59767;51.344;12.362;2023-04-08T05:43:11;160267.56;;;6.38
71897;BMP280;59767;51.344;12.362;2023-04-08T05:46:15;160272.81;;;6.40
71897;BMP280;59767;51.344;12.362;2023-04-08T05:49:19;160280.66;;;6.43
71897;BMP280;59767;51.344;12.362;2023-04-08T05:52:23;160275.41;;;6.41
71897;BMP280;59767;51.344;12.362;2023-04-08T05:55:28;160272.81;;;6.40
71897;BMP280;59767;51.344;12.362;2023-04-08T05:58:32;160285.88;;;6.45
71897;BMP280;59767;51.344;12.362;2023-04-08T06:01:36;160272.81;;;6.40
71897;BMP280;59767;51.344;12.362;2023-04-08T06:04:40;160270.16;;;6.39
71897;BMP280;59767;51.344;12.362;2023-04-08T06:07:44;160285.88;;;6.45
71897;BMP280;59767;51.344;12.362;2023-04-08T06:10:51;160291.06;;;6.47
71897;BMP280;59767;51.344;12.362;2023-04-08T06:13:55;160296.31;;;6.49
71897;BMP280;59767;51.344;12.362;2023-04-08T06:16:59;160292.41;;;6.48
71897;BMP280;59767;51.344;12.362;2023-04-08T06:20:07;160305.44;;;6.53
71897;BMP280;59767;51.344;12.362;2023-04-08T06:23:13;160300.19;;;6.51
71897;BMP280;59767;51.344;12.362;2023-04-08T06:26:17;160327.63;;;6.61
71897;BMP280;59767;51.344;12.362;2023-04-08T06:29:21;160302.78;;;6.52
71897;BMP280;59767;51.344;12.362;2023-04-08T06:32:26;160315.88;;;6.57
71897;BMP280;59767;51.344;12.362;2023-04-08T06:35:29;160309.38;;;6.54
71897;BMP280;59767;51.344;12.362;2023-04-08T06:38:35;160317.19;;;6.57
71897;BMP280;59767;51.344;12.362;2023-04-08T06:41:39;160319.78;;;6.58
71897;BMP280;59767;51.344;12.362;2023-04-08T06:44:44;160304.13;;;6.52
71897;BMP280;59767;51.344;12.362;2023-04-08T06:47:48;160315.88;;;6.57
71897;BMP280;59767;51.344;12.362;2023-04-08T06:50:52;160319.78;;;6.58
71897;BMP280;59767;51.344;12.362;2023-04-08T06:53:56;160309.38;;;6.54
71897;BMP280;59767;51.344;12.362;2023-04-08T06:57:00;160304.13;;;6.52
71897;BMP280;59767;51.344;12.362;2023-04-08T07:00:04;160335.47;;;6.64
71897;BMP280;59767;51.344;12.362;2023-04-08T07:03:09;160351.16;;;6.70
71897;BMP280;59767;51.344;12.362;2023-04-08T07:06:17;160351.16;;;6.70
71897;BMP280;59767;51.344;12.362;2023-04-08T07:09:21;160360.31;;;6.74
71897;BMP280;59767;51.344;12.362;2023-04-08T07:12:24;160357.69;;;6.73
71897;BMP280;59767;51.344;12.362;2023-04-08T07:15:29;160377.22;;;6.80
71897;BMP280;59767;51.344;12.362;2023-04-08T07:18:33;160408.59;;;6.92
71897;BMP280;59767;51.344;12.362;2023-04-08T07:21:36;160413.84;;;6.94
71897;BMP280;59767;51.344;12.362;2023-04-08T07:24:40;160415.13;;;6.95
71897;BMP280;59767;51.344;12.362;2023-04-08T07:27:45;160441.25;;;7.05
71897;BMP280;59767;51.344;12.362;2023-04-08T07:30:49;160466.03;;;7.14
71897;BMP280;59767;51.344;12.362;2023-04-08T07:33:53;160463.44;;;7.13
71897;BMP280;59767;51.344;12.362;2023-04-08T07:36:57;160468.66;;;7.15
71897;BMP280;59767;51.344;12.362;2023-04-08T07:40:01;160454.34;;;7.10
71897;BMP280;59767;51.344;12.362;2023-04-08T07:43:05;160471.28;;;7.16
71897;BMP280;59767;51.344;12.362;2023-04-08T07:46:09;160468.66;;;7.15
71897;BMP280;59767;51.344;12.362;2023-04-08T07:49:13;160479.13;;;7.19
71897;BMP280;59767;51.344;12.362;2023-04-08T07:52:17;160460.78;;;7.12
71897;BMP280;59767;51.344;12.362;2023-04-08T07:55:21;160520.91;;;7.35
71897;BMP280;59767;51.344;12.362;2023-04-08T07:58:26;160609.72;;;7.69
71897;BMP280;59767;51.344;12.362;2023-04-08T08:01:30;160710.38;;;8.08
71897;BMP280;59767;51.344;12.362;2023-04-08T08:04:37;160740.44;;;8.19
71897;BMP280;59767;51.344;12.362;2023-04-08T08:07:41;160745.69;;;8.21
71897;BMP280;59767;51.344;12.362;2023-04-08T08:10:45;160731.25;;;8.16
71897;BMP280;59767;51.344;12.362;2023-04-08T08:13:49;160762.59;;;8.28
71897;BMP280;59767;51.344;12.362;2023-04-08T08:16:54;160767.84;;;8.30
71897;BMP280;59767;51.344;12.362;2023-04-08T08:19:59;160775.66;;;8.33
71897;BMP280;59767;51.344;12.362;2023-04-08T08:23:04;160745.69;;;8.21
71897;BMP280;59767;51.344;12.362;2023-04-08T08:26:08;160761.31;;;8.27
71897;BMP280;59767;51.344;12.362;2023-04-08T08:29:13;160769.19;;;8.30
71897;BMP280;59767;51.344;12.362;2023-04-08T08:32:17;160788.75;;;8.38
71897;BMP280;59767;51.344;12.362;2023-04-08T08:35:21;160807.06;;;8.45
71897;BMP280;59767;51.344;12.362;2023-04-08T08:38:25;160833.16;;;8.55
71897;BMP280;59767;51.344;12.362;2023-04-08T08:41:33;160829.25;;;8.53
71897;BMP280;59767;51.344;12.362;2023-04-08T08:44:38;160826.63;;;8.52
71897;BMP280;59767;51.344;12.362;2023-04-08T08:47:41;160831.91;;;8.54
71897;BMP280;59767;51.344;12.362;2023-04-08T08:50:45;160843.66;;;8.59
71897;BMP280;59767;51.344;12.362;2023-04-08T08:53:49;160843.66;;;8.59
71897;BMP280;59767;51.344;12.362;2023-04-08T08:56:54;160863.25;;;8.66
71897;BMP280;59767;51.344;12.362;2023-04-08T08:59:57;160886.75;;;8.75
71897;BMP280;59767;51.344;12.362;2023-04-08T09:03:14;160960.00;;;9.04
71897;BMP280;59767;51.344;12.362;2023-04-08T09:06:19;161025.34;;;9.29
71897;BMP280;59767;51.344;12.362;2023-04-08T09:09:23;161050.19;;;9.38
71897;BMP280;59767;51.344;12.362;2023-04-08T09:12:28;161064.63;;;9.44
71897;BMP280;59767;51.344;12.362;2023-04-08T09:15:34;161060.63;;;9.42
71897;BMP280;59767;51.344;12.362;2023-04-08T09:18:38;161048.84;;;9.38
71897;BMP280;59767;51.344;12.362;2023-04-08T09:21:43;161043.69;;;9.36
71897;BMP280;59767;51.344;12.362;2023-04-08T09:24:47;161038.44;;;9.34
71897;BMP280;59767;51.344;12.362;2023-04-08T09:27:51;161059.38;;;9.42
71897;BMP280;59767;51.344;12.362;2023-04-08T09:30:56;161039.78;;;9.34
71897;BMP280;59767;51.344;12.362;2023-04-08T09:34:00;161021.47;;;9.27
71897;BMP280;59767;51.344;12.362;2023-04-08T09:37:11;161004.41;;;9.21
71897;BMP280;59767;51.344;12.362;2023-04-08T09:40:15;161025.34;;;9.29
71897;BMP280;59767;51.344;12.362;2023-04-08T09:43:20;161016.19;;;9.25
71897;BMP280;59767;51.344;12.362;2023-04-08T09:46:26;161000.50;;;9.19
71897;BMP280;59767;51.344;12.362;2023-04-08T09:49:45;160982.19;;;9.12
71897;BMP280;59767;51.344;12.362;2023-04-08T09:52:50;160983.50;;;9.13
71897;BMP280;59767;51.344;12.362;2023-04-08T09:55:58;160940.41;;;8.96
71897;BMP280;59767;51.344;12.362;2023-04-08T09:59:08;160944.34;;;8.98
71897;BMP280;59767;51.344;12.362;2023-04-08T10:02:15;160941.69;;;8.97
71897;BMP280;59767;51.344;12.362;2023-04-08T10:05:19;160967.84;;;9.07
71897;BMP280;59767;51.344;12.362;2023-04-08T10:08:24;160980.91;;;9.12
71897;BMP280;59767;51.344;12.362;2023-04-08T10:11:29;160956.06;;;9.02
71897;BMP280;59767;51.344;12.362;2023-04-08T10:14:33;160945.59;;;8.98
71897;BMP280;59767;51.344;12.362;2023-04-08T10:17:38;160949.53;;;9.00
71897;BMP280;59767;51.344;12.362;2023-04-08T10:20:41;160923.41;;;8.90
71897;BMP280;59767;51.344;12.362;2023-04-08T10:23:53;160912.91;;;8.85
71897;BMP280;59767;51.344;12.362;2023-04-08T10:26:58;160910.31;;;8.84
71897;BMP280;59767;51.344;12.362;2023-04-08T10:30:02;160920.78;;;8.88
71897;BMP280;59767;51.344;12.362;2023-04-08T10:33:16;160933.81;;;8.93
71897;BMP280;59767;51.344;12.362;2023-04-08T10:36:20;160935.16;;;8.94
71897;BMP280;59767;51.344;12.362;2023-04-08T10:39:25;160941.69;;;8.97
71897;BMP280;59767;51.344;12.362;2023-04-08T10:42:29;160946.94;;;8.99
71897;BMP280;59767;51.344;12.362;2023-04-08T10:45:34;160971.78;;;9.08
71897;BMP280;59767;51.344;12.362;2023-04-08T10:48:38;161008.34;;;9.22
71897;BMP280;59767;51.344;12.362;2023-04-08T10:51:42;161037.13;;;9.33
71897;BMP280;59767;51.344;12.362;2023-04-08T10:54:47;161094.63;;;9.55
71897;BMP280;59767;51.344;12.362;2023-04-08T10:57:51;161099.88;;;9.57
71897;BMP280;59767;51.344;12.362;2023-04-08T11:00:55;161157.44;;;9.79
71897;BMP280;59767;51.344;12.362;2023-04-08T11:04:15;161197.94;;;9.95
71897;BMP280;59767;51.344;12.362;2023-04-08T11:07:20;161183.56;;;9.89
71897;BMP280;59767;51.344;12.362;2023-04-08T11:10:25;161194.03;;;9.93
71897;BMP280;59767;51.344;12.362;2023-04-08T11:13:30;161195.34;;;9.94
71897;BMP280;59767;51.344;12.362;2023-04-08T11:16:35;161184.88;;;9.90
71897;BMP280;59767;51.344;12.362;2023-04-08T11:19:40;161226.75;;;10.06
71897;BMP280;59767;51.344;12.362;2023-04-08T11:22:44;161288.25;;;10.29
71897;BMP280;59767;51.344;12.362;2023-04-08T11:25:49;161328.78;;;10.45
71897;BMP280;59767;51.344;12.362;2023-04-08T11:28:54;161407.28;;;10.75
71897;BMP280;59767;51.344;12.362;2023-04-08T11:31:59;161454.41;;;10.93
71897;BMP280;59767;51.344;12.362;2023-04-08T11:35:04;161506.72;;;11.13
71897;BMP280;59767;51.344;12.362;2023-04-08T11:38:09;161505.38;;;11.12
71897;BMP280;59767;51.344;12.362;2023-04-08T11:41:14;161545.94;;;11.28
71897;BMP280;59767;51.344;12.362;2023-04-08T11:44:18;161586.56;;;11.43
71897;BMP280;59767;51.344;12.362;2023-04-08T11:47:32;161606.16;;;11.51
71897;BMP280;59767;51.344;12.362;2023-04-08T11:50:36;161548.59;;;11.29
71897;BMP280;59767;51.344;12.362;2023-04-08T11:53:40;161501.44;;;11.11
71897;BMP280;59767;51.344;12.362;2023-04-08T11:56:44;161451.75;;;10.92
71897;BMP280;59767;51.344;12.362;2023-04-08T11:59:51;161422.94;;;10.81
71897;BMP280;59767;51.344;12.362;2023-04-08T12:02:54;161395.53;;;10.70
71897;BMP280;59767;51.344;12.362;2023-04-08T12:05:59;161415.13;;;10.78
71897;BMP280;59767;51.344;12.362;2023-04-08T12:09:03;161508.03;;;11.13
71897;BMP280;59767;51.344;12.362;2023-04-08T12:12:07;161581.28;;;11.41
71897;BMP280;59767;51.344;12.362;2023-04-08T12:15:10;161657.22;;;11.70
71897;BMP280;59767;51.344;12.362;2023-04-08T12:18:14;161705.66;;;11.89
71897;BMP280;59767;51.344;12.362;2023-04-08T12:21:19;161684.72;;;11.81
71897;BMP280;59767;51.344;12.362;2023-04-08T12:24:22;161587.84;;;11.44
71897;BMP280;59767;51.344;12.362;2023-04-08T12:27:26;161517.19;;;11.17
71897;BMP280;59767;51.344;12.362;2023-04-08T12:30:30;161436.06;;;10.86
71897;BMP280;59767;51.344;12.362;2023-04-08T12:33:34;161413.81;;;10.77
71897;BMP280;59767;51.344;12.362;2023-04-08T12:36:38;161449.16;;;10.91
71897;BMP280;59767;51.344;12.362;2023-04-08T12:39:44;161457.00;;;10.94
71897;BMP280;59767;51.344;12.362;2023-04-08T12:42:48;161531.59;;;11.22
71897;BMP280;59767;51.344;12.362;2023-04-08T12:45:52;161612.72;;;11.53
71897;BMP280;59767;51.344;12.362;2023-04-08T12:48:56;161589.16;;;11.44
71897;BMP280;59767;51.344;12.362;2023-04-08T12:52:07;161585.22;;;11.43
71897;BMP280;59767;51.344;12.362;2023-04-08T12:55:11;161553.84;;;11.31
71897;BMP280;59767;51.344;12.362;2023-04-08T12:58:15;161586.56;;;11.43
71897;BMP280;59767;51.344;12.362;2023-04-08T13:01:19;161612.72;;;11.53
71897;BMP280;59767;51.344;12.362;2023-04-08T13:04:24;161629.72;;;11.60
71897;BMP280;59767;51.344;12.362;2023-04-08T13:07:27;161625.78;;;11.58
71897;BMP280;59767;51.344;12.362;2023-04-08T13:10:31;161649.41;;;11.67
71897;BMP280;59767;51.344;12.362;2023-04-08T13:13:35;161662.44;;;11.72
71897;BMP280;59767;51.344;12.362;2023-04-08T13:16:39;161649.41;;;11.67
71897;BMP280;59767;51.344;12.362;2023-04-08T13:19:42;161598.31;;;11.48
71897;BMP280;59767;51.344;12.362;2023-04-08T13:22:46;161569.53;;;11.37
71897;BMP280;59767;51.344;12.362;2023-04-08T13:25:50;161596.97;;;11.47
71897;BMP280;59767;51.344;12.362;2023-04-08T13:28:55;161606.16;;;11.51
71897;BMP280;59767;51.344;12.362;2023-04-08T13:32:01;161608.78;;;11.52
71897;BMP280;59767;51.344;12.362;2023-04-08T13:35:04;161653.28;;;11.69
71897;BMP280;59767;51.344;12.362;2023-04-08T13:38:09;161692.53;;;11.84
71897;BMP280;59767;51.344;12.362;2023-04-08T13:41:13;161709.56;;;11.90
71897;BMP280;59767;51.344;12.362;2023-04-08T13:44:16;161718.75;;;11.94
71897;BMP280;59767;51.344;12.362;2023-04-08T13:47:20;161684.72;;;11.81
71897;BMP280;59767;51.344;12.362;2023-04-08T13:50:25;161642.81;;;11.65
71897;BMP280;59767;51.344;12.362;2023-04-08T13:53:29;161573.47;;;11.38
71897;BMP280;59767;51.344;12.362;2023-04-08T13:56:33;161547.25;;;11.28
71897;BMP280;59767;51.344;12.362;2023-04-08T13:59:37;161547.25;;;11.28
71897;BMP280;59767;51.344;12.362;2023-04-08T14:02:41;161553.84;;;11.31
71897;BMP280;59767;51.344;12.362;2023-04-08T14:05:45;161600.91;;;11.49
71897;BMP280;59767;51.344;12.362;2023-04-08T14:08:49;161671.56;;;11.76
71897;BMP280;59767;51.344;12.362;2023-04-08T14:11:53;161653.28;;;11.69
71897;BMP280;59767;51.344;12.362;2023-04-08T14:14:57;161579.97;;;11.41
71897;BMP280;59767;51.344;12.362;2023-04-08T14:18:01;161536.78;;;11.24
71897;BMP280;59767;51.344;12.362;2023-04-08T14:21:05;161471.38;;;10.99
71897;BMP280;59767;51.344;12.362;2023-04-08T14:24:10;161474.00;;;11.00
71897;BMP280;59767;51.344;12.362;2023-04-08T14:27:14;161475.34;;;11.01
71897;BMP280;59767;51.344;12.362;2023-04-08T14:30:18;161443.88;;;10.89
71897;BMP280;59767;51.344;12.362;2023-04-08T14:33:22;161429.53;;;10.83
71897;BMP280;59767;51.344;12.362;2023-04-08T14:36:26;161404.66;;;10.74
71897;BMP280;59767;51.344;12.362;2023-04-08T14:39:30;161409.88;;;10.76
71897;BMP280;59767;51.344;12.362;2023-04-08T14:42:34;161436.06;;;10.86
71897;BMP280;59767;51.344;12.362;2023-04-08T14:45:39;161419.00;;;10.79
71897;BMP280;59767;51.344;12.362;2023-04-08T14:48:43;161438.63;;;10.87
71897;BMP280;59767;51.344;12.362;2023-04-08T14:51:48;161453.06;;;10.92
71897;BMP280;59767;51.344;12.362;2023-04-08T14:54:55;161493.63;;;11.08
71897;BMP280;59767;51.344;12.362;2023-04-08T14:57:59;161491.03;;;11.07
71897;BMP280;59767;51.344;12.362;2023-04-08T15:01:03;161480.50;;;11.03
71897;BMP280;59767;51.344;12.362;2023-04-08T15:04:07;161464.81;;;10.97
71897;BMP280;59767;51.344;12.362;2023-04-08T15:07:11;161518.47;;;11.17
71897;BMP280;59767;51.344;12.362;2023-04-08T15:10:16;161528.97;;;11.21
71897;BMP280;59767;51.344;12.362;2023-04-08T15:13:19;161500.16;;;11.10
71897;BMP280;59767;51.344;12.362;2023-04-08T15:16:23;161443.88;;;10.89
71897;BMP280;59767;51.344;12.362;2023-04-08T15:19:27;161392.88;;;10.69
71897;BMP280;59767;51.344;12.362;2023-04-08T15:22:31;161356.22;;;10.55
71897;BMP280;59767;51.344;12.362;2023-04-08T15:25:35;161331.38;;;10.46
71897;BMP280;59767;51.344;12.362;2023-04-08T15:28:39;161309.19;;;10.37
71897;BMP280;59767;51.344;12.362;2023-04-08T15:31:43;161324.84;;;10.43
71897;BMP280;59767;51.344;12.362;2023-04-08T15:34:47;161412.53;;;10.77
71897;BMP280;59767;51.344;12.362;2023-04-08T15:37:51;161488.38;;;11.06
71897;BMP280;59767;51.344;12.362;2023-04-08T15:40:55;161492.31;;;11.07
71897;BMP280;59767;51.344;12.362;2023-04-08T15:43:59;161480.50;;;11.03
71897;BMP280;59767;51.344;12.362;2023-04-08T15:47:03;161443.88;;;10.89
71897;BMP280;59767;51.344;12.362;2023-04-08T15:50:07;161415.13;;;10.78
71897;BMP280;59767;51.344;12.362;2023-04-08T15:53:12;161399.41;;;10.72
71897;BMP280;59767;51.344;12.362;2023-04-08T15:56:16;161390.25;;;10.68
71897;BMP280;59767;51.344;12.362;2023-04-08T15:59:20;161368.00;;;10.60
71897;BMP280;59767;51.344;12.362;2023-04-08T16:02:24;161388.94;;;10.68
71897;BMP280;59767;51.344;12.362;2023-04-08T16:05:28;161388.94;;;10.68
71897;BMP280;59767;51.344;12.362;2023-04-08T16:08:33;161370.66;;;10.61
71897;BMP280;59767;51.344;12.362;2023-04-08T16:11:37;161307.84;;;10.37
71897;BMP280;59767;51.344;12.362;2023-04-08T16:14:42;161280.38;;;10.26
71897;BMP280;59767;51.344;12.362;2023-04-08T16:17:52;161286.91;;;10.29
71897;BMP280;59767;51.344;12.362;2023-04-08T16:20:57;161292.13;;;10.31
71897;BMP280;59767;51.344;12.362;2023-04-08T16:24:01;161255.47;;;10.17
71897;BMP280;59767;51.344;12.362;2023-04-08T16:27:04;161217.59;;;10.02
71897;BMP280;59767;51.344;12.362;2023-04-08T16:30:09;161207.09;;;9.98
71897;BMP280;59767;51.344;12.362;2023-04-08T16:33:13;161184.88;;;9.90
71897;BMP280;59767;51.344;12.362;2023-04-08T16:36:17;161137.84;;;9.72
71897;BMP280;59767;51.344;12.362;2023-04-08T16:39:21;161112.97;;;9.62
71897;BMP280;59767;51.344;12.362;2023-04-08T16:42:25;161097.28;;;9.56
71897;BMP280;59767;51.344;12.362;2023-04-08T16:45:29;161085.47;;;9.52
71897;BMP280;59767;51.344;12.362;2023-04-08T16:48:34;161067.22;;;9.45
71897;BMP280;59767;51.344;12.362;2023-04-08T16:51:38;161038.44;;;9.34
71897;BMP280;59767;51.344;12.362;2023-04-08T16:54:42;161010.94;;;9.23
71897;BMP280;59767;51.344;12.362;2023-04-08T16:57:47;160970.44;;;9.08
71897;BMP280;59767;51.344;12.362;2023-04-08T17:00:50;160945.59;;;8.98
71897;BMP280;59767;51.344;12.362;2023-04-08T17:03:54;160943.00;;;8.97
71897;BMP280;59767;51.344;12.362;2023-04-08T17:07:00;160905.06;;;8.82
71897;BMP280;59767;51.344;12.362;2023-04-08T17:10:04;160898.59;;;8.80
71897;BMP280;59767;51.344;12.362;2023-04-08T17:13:09;160889.41;;;8.76
71897;BMP280;59767;51.344;12.362;2023-04-08T17:16:17;160858.00;;;8.64
71897;BMP280;59767;51.344;12.362;2023-04-08T17:19:21;160858.00;;;8.64
71897;BMP280;59767;51.344;12.362;2023-04-08T17:22:25;160858.00;;;8.64
71897;BMP280;59767;51.344;12.362;2023-04-08T17:25:30;160811.00;;;8.46
71897;BMP280;59767;51.344;12.362;2023-04-08T17:28:34;160829.25;;;8.53
71897;BMP280;59767;51.344;12.362;2023-04-08T17:31:38;160847.59;;;8.60
71897;BMP280;59767;51.344;12.362;2023-04-08T17:34:43;160863.25;;;8.66